Cooke City, MT (59020)

7:52 PM MST on February 06, 2016 (GMT -0700)
Old Cooke City | | Change Station
CLOSE
Current Station
Personal Weather Station
Location: Montana, MT
Elevation: 7566 ft
Nearby Weather Stations

Elev 7566 ft 45.02 °N, 109.94 °W | Updated 11 minutes ago

Clear
Clear
22.5 °F
Feels Like 15 °F
N
5.8
Wind Variable Wind from South

Today
High -- | Low -- °F
--% Chance of Precip.
Yesterday
High -- | Low -- °F
Precip. -- in
Pressure 30.39 in
Visibility -9999.0 miles
Clouds
Windchill 15 °F
Dew Point 18 °F
Humidity 81%
Rainfall 0.00 in
Snow Depth Not available.
7:33 AM 5:34 PM
Waning Crescent, 3% visible
METAR KP60 070156Z AUTO VRB03KT M06/M09 A3027 RMK AO1 SLP290 T10611094
Pressure 30.39 in
Visibility -9999.0 miles
Clouds
Windchill 15 °F
Dew Point 18 °F
Humidity 81%
Rainfall 0.00 in
Snow Depth Not available.
7:33 AM 5:34 PM
Waning Crescent, 3% visible
METAR KP60 070156Z AUTO VRB03KT M06/M09 A3027 RMK AO1 SLP290 T10611094

10-Day Weather Forecast

Almanac

Astronomy

Feb. 06, 2016 Rise Set
Actual Time
Civil Twilight
Nautical Twilight
Astronomical Twilight
Moon
Length of Visible Light
Length of Day
Tomorrow will be .
, % of the Moon is Illuminated

Today's Extremes

State Highs State Lows

Community

WunderPhotos

Upload Photos

1,891,143 photos uploaded!

WunderBlog® & News

Nearby

Air Quality

  Air Quality AQ Index Pollutant
Not available.

Snow Depth

Station Depth Elevation

Earthquake Activity

City Distance Mag. Time & Date
Minimum magnitude displayed is 2.5.

Coastal Water Temperatures

Place Temperature

Stations

Nearby Weather Stations

Station Location Temp. Windchill Dew Point Humidity Wind Precip. Elev Updated Type
                   

Watches & Warnings

There are currently no watches in effect.